createdAt,value
2022-12-27T00:00:36.482Z,99635.86
2022-12-27T00:03:23.575Z,99645.52
2022-12-27T00:05:52.157Z,99652.23
2022-12-27T00:08:19.309Z,99658.25
2022-12-27T00:10:46.483Z,99661.54
2022-12-27T00:13:13.608Z,99667.54
2022-12-27T00:15:40.759Z,99670.23
2022-12-27T00:18:07.911Z,99668.84
2022-12-27T00:20:35.007Z,99677.88
2022-12-27T00:23:02.089Z,99687.44
2022-12-27T00:25:29.260Z,99692.43
2022-12-27T00:27:56.467Z,99695.12
2022-12-27T00:30:23.645Z,99698.68
2022-12-27T00:32:50.813Z,99703.38
2022-12-27T00:35:18.032Z,99706.01
2022-12-27T00:37:45.166Z,99708.21
2022-12-27T00:40:12.675Z,99719.12
2022-12-27T00:42:39.852Z,99722.63
2022-12-27T00:45:07.618Z,99725.96
2022-12-27T00:47:34.796Z,99713.92
2022-12-27T00:50:01.946Z,99717.67
2022-12-27T00:52:30.168Z,99729.92
2022-12-27T00:54:57.295Z,99744.50
2022-12-27T00:57:24.486Z,99758.40
2022-12-27T00:59:51.645Z,99755.86
2022-12-27T01:02:18.812Z,99755.03
2022-12-27T01:04:46.029Z,99757.21
2022-12-27T01:07:13.253Z,99761.91
2022-12-27T01:09:40.389Z,99770.84
2022-12-27T01:12:07.603Z,99774.48
2022-12-27T01:14:35.986Z,99776.14
2022-12-27T01:17:03.132Z,99776.91
2022-12-27T01:19:30.442Z,99771.40
2022-12-27T01:21:57.717Z,99777.52
2022-12-27T01:24:24.868Z,99781.92
2022-12-27T01:26:51.968Z,99784.40
2022-12-27T01:29:19.530Z,99783.30
2022-12-27T01:31:47.107Z,99783.29
2022-12-27T01:34:14.593Z,99794.31
2022-12-27T01:36:42.386Z,99798.98
2022-12-27T01:39:11.797Z,99802.59
2022-12-27T01:42:00.807Z,99809.09
2022-12-27T01:44:40.488Z,99808.20
2022-12-27T01:47:18.373Z,99803.30
2022-12-27T01:49:59.913Z,99794.85
2022-12-27T01:52:37.458Z,99796.27
2022-12-27T01:55:15.178Z,99803.10
2022-12-27T01:57:42.744Z,99801.86
2022-12-27T02:00:11.115Z,99803.52
2022-12-27T02:02:39.154Z,99801.94
2022-12-27T02:05:08.029Z,99803.34
2022-12-27T02:07:53.620Z,99807.27
2022-12-27T02:10:21.127Z,99811.13
2022-12-27T02:12:48.383Z,99815.29
2022-12-27T02:15:15.657Z,99814.56
2022-12-27T02:17:43.575Z,99811.98
2022-12-27T02:20:20.146Z,99819.84
2022-12-27T02:23:39.694Z,99819.58
2022-12-27T02:26:44.970Z,99814.30
2022-12-27T02:29:49.906Z,99808.70
2022-12-27T02:32:24.079Z,99812.20
2022-12-27T02:34:57.954Z,99818.89
2022-12-27T02:37:29.637Z,99825.53
2022-12-27T02:40:18.843Z,99829.04
2022-12-27T02:43:05.536Z,99828.09
2022-12-27T02:45:57.784Z,99829.73
2022-12-27T02:48:43.488Z,99839.02
2022-12-27T02:52:25.239Z,99845.37
2022-12-27T02:55:04.569Z,99855.56
2022-12-27T02:57:34.924Z,99858.29
2022-12-27T03:00:27.040Z,99861.58
2022-12-27T03:03:21.960Z,99862.23
2022-12-27T03:06:21.526Z,99859.40
2022-12-27T03:08:58.096Z,99861.31
2022-12-27T03:11:49.386Z,99871.83
2022-12-27T03:15:00.570Z,99874.83
2022-12-27T03:17:40.314Z,99883.03
2022-12-27T03:20:33.092Z,99879.91
2022-12-27T03:23:21.907Z,99884.91
2022-12-27T03:25:51.814Z,99886.43
2022-12-27T03:28:45.258Z,99891.58
2022-12-27T03:31:52.511Z,99896.15
2022-12-27T03:34:40.009Z,99905.71
2022-12-27T03:37:40.408Z,99908.38
2022-12-27T03:40:29.420Z,99914.43
2022-12-27T03:43:13.840Z,99917.19
2022-12-27T03:46:28.850Z,99913.25
2022-12-27T03:49:23.568Z,99917.00
2022-12-27T03:52:19.137Z,99917.77
2022-12-27T03:54:49.467Z,99915.02
2022-12-27T03:57:25.703Z,99922.00
2022-12-27T03:59:54.959Z,99920.52
2022-12-27T04:02:22.482Z,99922.55
2022-12-27T04:04:50.688Z,99928.10
2022-12-27T04:07:17.835Z,99929.81
2022-12-27T04:10:03.962Z,99933.27
2022-12-27T04:12:49.873Z,99939.33
2022-12-27T04:15:35.646Z,99942.26
2022-12-27T04:18:21.472Z,99949.66
2022-12-27T04:21:07.345Z,99957.70
2022-12-27T04:23:53.148Z,99956.63
2022-12-27T04:26:38.963Z,99958.15
2022-12-27T04:29:24.831Z,99970.73
2022-12-27T04:32:10.591Z,99974.87
2022-12-27T04:34:46.647Z,99979.70
2022-12-27T04:37:17.208Z,99981.89
2022-12-27T04:40:04.608Z,99981.81
2022-12-27T04:42:50.212Z,99991.08
2022-12-27T04:45:36.025Z,99999.32
2022-12-27T04:48:22.174Z,100004.61
2022-12-27T04:51:07.916Z,100007.30
2022-12-27T04:53:53.746Z,100008.48
2022-12-27T04:56:21.049Z,100013.38
2022-12-27T04:59:06.911Z,100015.36
2022-12-27T05:01:52.671Z,100016.89
2022-12-27T05:04:20.109Z,100017.24
2022-12-27T05:06:47.438Z,100021.32
2022-12-27T05:09:33.485Z,100025.83
2022-12-27T05:12:19.206Z,100035.10
2022-12-27T05:14:47.574Z,100038.78
2022-12-27T05:17:14.671Z,100037.34
2022-12-27T05:19:41.844Z,100043.98
2022-12-27T05:22:41.499Z,100047.61
2022-12-27T05:25:28.683Z,100055.00
2022-12-27T05:27:55.878Z,100060.36
2022-12-27T05:30:22.954Z,100056.84
2022-12-27T05:32:50.033Z,100056.35
2022-12-27T05:35:17.087Z,100056.45
2022-12-27T05:37:44.634Z,100055.79
2022-12-27T05:40:13.998Z,100054.77
2022-12-27T05:42:41.120Z,100062.35
2022-12-27T05:45:08.761Z,100067.47
2022-12-27T05:47:35.902Z,100074.33
2022-12-27T05:50:03.183Z,100078.52
2022-12-27T05:52:33.907Z,100078.46
2022-12-27T05:55:03.590Z,100082.94
2022-12-27T05:57:30.827Z,100080.45
2022-12-27T05:59:58.416Z,100081.45
2022-12-27T06:02:25.599Z,100083.92
2022-12-27T06:04:52.953Z,100087.75
2022-12-27T06:07:20.072Z,100091.34
2022-12-27T06:09:47.229Z,100097.20
2022-12-27T06:12:14.433Z,100102.97
2022-12-27T06:14:41.529Z,100105.89
2022-12-27T06:17:08.725Z,100112.45
2022-12-27T06:19:35.802Z,100117.70
2022-12-27T06:22:02.924Z,100119.71
2022-12-27T06:24:30.063Z,100121.92
2022-12-27T06:26:57.205Z,100128.23
2022-12-27T06:29:24.452Z,100131.56
2022-12-27T06:31:51.985Z,100138.40
2022-12-27T06:34:19.160Z,100145.05
2022-12-27T06:36:50.338Z,100147.80
2022-12-27T06:39:18.427Z,100147.17
2022-12-27T06:41:46.045Z,100154.27
2022-12-27T06:44:13.549Z,100155.34
2022-12-27T06:46:40.675Z,100155.88
2022-12-27T06:49:07.801Z,100161.48
2022-12-27T06:51:35.001Z,100164.87
2022-12-27T06:54:02.307Z,100171.73
2022-12-27T06:56:29.468Z,100172.69
2022-12-27T06:58:56.588Z,100174.30
2022-12-27T07:01:26.795Z,100175.06
2022-12-27T07:03:57.808Z,100175.40
2022-12-27T07:06:26.841Z,100177.17
2022-12-27T07:08:54.584Z,100174.79
2022-12-27T07:11:22.962Z,100172.72
2022-12-27T07:13:52.850Z,100178.02
2022-12-27T07:16:23.725Z,100181.73
2022-12-27T07:18:51.401Z,100182.79
2022-12-27T07:21:21.856Z,100187.07
2022-12-27T07:23:49.632Z,100191.67
2022-12-27T07:26:19.799Z,100194.70
2022-12-27T07:28:47.412Z,100197.79
2022-12-27T07:31:20.210Z,100199.58
2022-12-27T07:33:47.438Z,100202.61
2022-12-27T07:36:17.546Z,100206.41
2022-12-27T07:38:45.493Z,100207.58
2022-12-27T07:41:13.550Z,100210.48
2022-12-27T07:43:41.465Z,100209.02
2022-12-27T07:46:12.039Z,100212.14
2022-12-27T07:48:40.142Z,100219.04
2022-12-27T07:51:08.069Z,100216.60
2022-12-27T07:53:36.172Z,100217.49
2022-12-27T07:56:13.971Z,100216.27
2022-12-27T07:58:43.450Z,100213.41
2022-12-27T08:01:12.736Z,100219.55
2022-12-27T08:03:40.755Z,100227.92
2022-12-27T08:06:18.742Z,100232.06
2022-12-27T08:08:46.584Z,100240.25
2022-12-27T08:11:14.052Z,100235.86
2022-12-27T08:13:41.230Z,100237.63
2022-12-27T08:16:20.880Z,100243.39
2022-12-27T08:18:48.118Z,100242.44
2022-12-27T08:21:15.728Z,100244.72
2022-12-27T08:23:43.214Z,100238.84
2022-12-27T08:26:11.113Z,100250.45
2022-12-27T08:28:38.879Z,100253.50
2022-12-27T08:31:08.667Z,100257.96
2022-12-27T08:33:37.145Z,100259.48
2022-12-27T08:36:22.367Z,100261.84
2022-12-27T08:38:55.208Z,100262.16
2022-12-27T08:41:22.985Z,100263.23
2022-12-27T08:43:50.526Z,100259.30
2022-12-27T08:46:19.751Z,100256.13
2022-12-27T08:48:51.716Z,100262.96
2022-12-27T08:51:30.222Z,100269.33
2022-12-27T08:54:00.545Z,100269.38
2022-12-27T08:56:27.725Z,100271.17
2022-12-27T08:58:55.159Z,100278.23
2022-12-27T09:01:22.765Z,100285.74
2022-12-27T09:03:49.990Z,100290.71
2022-12-27T09:06:19.608Z,100288.89
2022-12-27T09:08:48.676Z,100289.48
2022-12-27T09:11:19.124Z,100288.10
2022-12-27T09:13:47.713Z,100288.27
2022-12-27T09:16:20.031Z,100290.14
2022-12-27T09:18:49.620Z,100286.27
2022-12-27T09:21:18.399Z,100288.59
2022-12-27T09:23:46.530Z,100289.06
2022-12-27T09:26:16.674Z,100289.89
2022-12-27T09:28:44.209Z,100288.48
2022-12-27T09:31:13.535Z,100294.89
2022-12-27T09:33:41.147Z,100294.86
2022-12-27T09:36:14.501Z,100297.94
2022-12-27T09:38:43.005Z,100303.50
2022-12-27T09:44:24.406Z,100304.78
2022-12-27T09:47:04.202Z,100306.33
2022-12-27T09:49:36.142Z,100301.13
2022-12-27T09:52:26.875Z,100299.48
2022-12-27T09:55:23.460Z,100297.66
2022-12-27T09:57:56.116Z,100297.61
2022-12-27T10:00:34.500Z,100298.92
2022-12-27T10:03:05.819Z,100298.45
2022-12-27T10:05:37.439Z,100300.88
2022-12-27T10:08:55.373Z,100299.56
2022-12-27T10:11:45.028Z,100300.98
2022-12-27T10:14:32.505Z,100299.66
2022-12-27T10:17:16.169Z,100299.59
2022-12-27T10:20:04.604Z,100297.84
2022-12-27T10:22:36.835Z,100296.52
2022-12-27T10:25:11.315Z,100291.48
2022-12-27T10:27:40.257Z,100289.14
2022-12-27T10:30:16.278Z,100286.94
2022-12-27T10:32:44.201Z,100289.27
2022-12-27T10:35:16.408Z,100289.92
2022-12-27T10:37:44.804Z,100291.82
2022-12-27T10:40:20.046Z,100293.88
2022-12-27T10:43:17.403Z,100295.20
2022-12-27T10:45:44.660Z,100294.23
2022-12-27T10:48:47.456Z,100295.98
2022-12-27T10:51:17.643Z,100292.52
2022-12-27T10:53:47.861Z,100292.38
2022-12-27T10:56:25.097Z,100290.66
2022-12-27T10:58:59.063Z,100289.57
2022-12-27T11:01:28.989Z,100290.44
2022-12-27T11:04:21.820Z,100288.19
2022-12-27T11:07:18.397Z,100283.81
2022-12-27T11:09:50.668Z,100282.56
2022-12-27T11:12:24.349Z,100289.31
2022-12-27T11:15:18.762Z,100294.73
2022-12-27T11:18:00.809Z,100301.98
2022-12-27T11:20:31.556Z,100304.58
2022-12-27T11:23:10.901Z,100309.65
2022-12-27T11:25:56.048Z,100309.61
2022-12-27T11:28:32.078Z,100315.52
2022-12-27T11:31:07.172Z,100316.91
2022-12-27T11:33:52.093Z,100321.54
2022-12-27T11:36:36.007Z,100324.75
2022-12-27T11:39:04.129Z,100321.55
2022-12-27T11:41:38.220Z,100331.26
2022-12-27T11:44:16.198Z,100335.25
2022-12-27T11:47:06.605Z,100329.85
2022-12-27T11:49:41.484Z,100334.09
2022-12-27T11:52:24.181Z,100337.45
2022-12-27T11:55:22.696Z,100335.69
2022-12-27T11:58:08.906Z,100335.52
2022-12-27T12:01:05.675Z,100346.59
2022-12-27T12:03:58.855Z,100341.17
2022-12-27T12:07:03.510Z,100345.77
2022-12-27T12:09:50.275Z,100345.51
2022-12-27T12:12:59.304Z,100349.84
2022-12-27T12:15:47.189Z,100348.36
2022-12-27T12:18:29.498Z,100345.74
2022-12-27T12:21:36.967Z,100346.66
2022-12-27T12:24:31.857Z,100344.05
2022-12-27T12:27:11.097Z,100339.43
2022-12-27T12:29:57.354Z,100343.98
2022-12-27T12:32:39.252Z,100346.20
2022-12-27T12:35:40.451Z,100349.10
2022-12-27T12:38:34.690Z,100342.02
2022-12-27T12:41:40.492Z,100354.63
2022-12-27T12:44:16.598Z,100350.41
2022-12-27T12:46:56.069Z,100358.88
2022-12-27T12:49:41.286Z,100357.90
2022-12-27T12:52:38.571Z,100354.92
2022-12-27T12:55:36.569Z,100354.35
2022-12-27T12:58:12.966Z,100349.42
2022-12-27T13:00:48.432Z,100352.27
2022-12-27T13:03:27.671Z,100355.40
2022-12-27T13:06:13.507Z,100360.33
2022-12-27T13:08:58.655Z,100364.66
2022-12-27T13:12:03.246Z,100369.25
2022-12-27T13:15:13.265Z,100373.25
2022-12-27T13:17:40.412Z,100380.50
2022-12-27T13:20:18.021Z,100381.26
2022-12-27T13:23:02.694Z,100385.61
2022-12-27T13:25:35.857Z,100381.86
2022-12-27T13:28:21.343Z,100382.09
2022-12-27T13:31:07.639Z,100379.83
2022-12-27T13:34:01.675Z,100376.70
2022-12-27T13:36:52.896Z,100378.42
2022-12-27T13:39:46.422Z,100381.05
2022-12-27T13:42:29.610Z,100381.21
2022-12-27T13:45:20.571Z,100383.40
2022-12-27T13:48:09.375Z,100381.12
2022-12-27T13:51:04.742Z,100387.27
2022-12-27T13:54:08.602Z,100387.20
2022-12-27T13:56:54.455Z,100388.67
2022-12-27T13:59:48.077Z,100389.20
2022-12-27T14:02:15.357Z,100391.00
2022-12-27T14:04:48.530Z,100394.73
2022-12-27T14:07:21.707Z,100394.70
2022-12-27T14:10:04.286Z,100394.96
2022-12-27T14:12:58.317Z,100399.94
2022-12-27T14:15:28.538Z,100401.95
2022-12-27T14:18:20.315Z,100403.92
2022-12-27T14:21:01.149Z,100406.23
2022-12-27T14:23:47.972Z,100410.10
2022-12-27T14:26:39.522Z,100412.73
2022-12-27T14:29:31.074Z,100416.98
2022-12-27T14:32:32.527Z,100418.08
2022-12-27T14:35:33.453Z,100420.09
2022-12-27T14:38:25.810Z,100424.73
2022-12-27T14:41:24.113Z,100430.58
2022-12-27T14:44:00.202Z,100439.48
2022-12-27T14:46:45.691Z,100447.88
2022-12-27T14:49:50.335Z,100452.54
2022-12-27T14:52:47.974Z,100457.48
2022-12-27T14:55:37.141Z,100458.22
2022-12-27T14:58:36.655Z,100457.95
2022-12-27T15:01:25.799Z,100462.14
2022-12-27T15:04:28.399Z,100461.20
2022-12-27T15:06:55.458Z,100465.86
2022-12-27T15:09:54.215Z,100472.66
2022-12-27T15:12:59.306Z,100474.93
2022-12-27T15:15:45.210Z,100473.07
2022-12-27T15:18:26.071Z,100473.95
2022-12-27T15:21:18.392Z,100474.11
2022-12-27T15:23:54.751Z,100480.22
2022-12-27T15:27:03.288Z,100479.86
2022-12-27T15:29:33.430Z,100482.77
2022-12-27T15:32:09.608Z,100486.15
2022-12-27T15:35:24.015Z,100487.34
2022-12-27T15:38:04.679Z,100489.73
2022-12-27T15:40:34.669Z,100489.86
2022-12-27T15:43:11.849Z,100490.34
2022-12-27T15:45:42.757Z,100491.63
2022-12-27T15:48:53.260Z,100500.52
2022-12-27T15:51:33.297Z,100505.61
2022-12-27T15:54:00.400Z,100509.83
2022-12-27T15:56:36.847Z,100508.60
2022-12-27T15:59:37.678Z,100503.43
2022-12-27T16:02:27.094Z,100505.09
2022-12-27T16:05:20.650Z,100513.52
2022-12-27T16:07:53.629Z,100514.27
2022-12-27T16:10:35.908Z,100523.08
2022-12-27T16:13:09.539Z,100523.19
2022-12-27T16:15:51.130Z,100520.52
2022-12-27T16:18:24.599Z,100522.66
2022-12-27T16:20:58.028Z,100526.57
2022-12-27T16:23:29.742Z,100530.09
2022-12-27T16:26:26.665Z,100532.70
2022-12-27T16:29:00.689Z,100538.45
2022-12-27T16:31:30.985Z,100539.42
2022-12-27T16:34:10.147Z,100535.87
2022-12-27T16:36:44.811Z,100537.13
2022-12-27T16:39:11.922Z,100542.01
2022-12-27T16:41:57.787Z,100543.88
2022-12-27T16:44:24.945Z,100545.98
2022-12-27T16:46:52.143Z,100546.73
2022-12-27T16:49:44.279Z,100544.46
2022-12-27T16:52:16.900Z,100545.66
2022-12-27T16:55:03.244Z,100541.70
2022-12-27T16:57:41.056Z,100545.25
2022-12-27T17:00:11.287Z,100547.32
2022-12-27T17:02:42.214Z,100543.76
2022-12-27T17:05:15.621Z,100544.52
2022-12-27T17:07:44.859Z,100549.06
2022-12-27T17:10:27.537Z,100551.98
2022-12-27T17:12:59.989Z,100557.07
2022-12-27T17:15:27.850Z,100562.98
2022-12-27T17:17:59.760Z,100564.89
2022-12-27T17:20:27.014Z,100564.09
2022-12-27T17:22:57.776Z,100567.39
2022-12-27T17:25:44.380Z,100565.90
2022-12-27T17:28:17.655Z,100564.52
2022-12-27T17:30:54.821Z,100566.28
2022-12-27T17:33:33.058Z,100568.02
2022-12-27T17:36:14.518Z,100561.73
2022-12-27T17:39:01.141Z,100566.77
2022-12-27T17:42:14.095Z,100574.89
2022-12-27T17:45:07.811Z,100583.31
2022-12-27T17:47:43.946Z,100585.97
2022-12-27T17:50:20.110Z,100590.24
2022-12-27T17:53:29.485Z,100586.13
2022-12-27T17:56:41.400Z,100588.38
2022-12-27T17:59:12.634Z,100589.89
2022-12-27T18:01:47.841Z,100588.13
2022-12-27T18:04:25.794Z,100589.10
2022-12-27T18:06:58.397Z,100590.09
2022-12-27T18:09:33.150Z,100597.79
2022-12-27T18:12:03.980Z,100598.05
2022-12-27T18:14:34.086Z,100598.08
2022-12-27T18:17:01.826Z,100600.77
2022-12-27T18:19:31.444Z,100607.38
2022-12-27T18:22:00.983Z,100607.17
2022-12-27T18:24:33.003Z,100607.76
2022-12-27T18:27:15.635Z,100609.16
2022-12-27T18:29:43.170Z,100612.70
2022-12-27T18:32:14.177Z,100609.02
2022-12-27T18:34:45.596Z,100613.29
2022-12-27T18:37:19.089Z,100613.30
2022-12-27T18:39:55.454Z,100619.82
2022-12-27T18:42:22.579Z,100621.29
2022-12-27T18:44:54.982Z,100628.42
2022-12-27T18:47:25.200Z,100629.46
2022-12-27T18:49:59.088Z,100628.61
2022-12-27T18:52:32.447Z,100637.20
2022-12-27T18:55:20.211Z,100636.92
2022-12-27T18:57:48.390Z,100640.09
2022-12-27T19:00:21.862Z,100641.52
2022-12-27T19:02:50.257Z,100646.36
2022-12-27T19:05:20.631Z,100642.21
2022-12-27T19:07:51.735Z,100644.55
2022-12-27T19:10:23.032Z,100643.61
2022-12-27T19:12:52.283Z,100646.69
2022-12-27T19:15:40.441Z,100655.36
2022-12-27T19:18:22.627Z,100656.31
2022-12-27T19:21:02.352Z,100654.08
2022-12-27T19:23:33.443Z,100658.27
2022-12-27T19:26:06.810Z,100658.33
2022-12-27T19:28:34.840Z,100663.21
2022-12-27T19:31:21.788Z,100669.41
2022-12-27T19:33:54.510Z,100674.13
2022-12-27T19:36:32.683Z,100675.36
2022-12-27T19:39:00.710Z,100676.08
2022-12-27T19:41:28.016Z,100674.42
2022-12-27T19:43:56.241Z,100674.95
2022-12-27T19:46:30.573Z,100675.94
2022-12-27T19:51:46.051Z,100680.60
2022-12-27T19:54:19.970Z,100682.00
2022-12-27T19:56:47.500Z,100681.85
2022-12-27T19:59:16.882Z,100685.58
2022-12-27T20:01:45.718Z,100689.44
2022-12-27T20:04:14.488Z,100690.70
2022-12-27T20:06:42.631Z,100691.51
2022-12-27T20:09:14.084Z,100692.23
2022-12-27T20:11:41.670Z,100691.06
2022-12-27T20:14:08.995Z,100695.77
2022-12-27T20:16:36.372Z,100699.77
2022-12-27T20:19:04.252Z,100701.12
2022-12-27T20:21:31.448Z,100699.31
2022-12-27T20:23:58.580Z,100702.27
2022-12-27T20:26:25.979Z,100701.17
2022-12-27T20:28:53.897Z,100702.86
2022-12-27T20:31:22.232Z,100704.69
2022-12-27T20:33:54.029Z,100706.13
2022-12-27T20:36:22.057Z,100705.17
2022-12-27T20:38:49.499Z,100708.92
2022-12-27T20:41:19.405Z,100701.75
2022-12-27T20:43:47.120Z,100701.23
2022-12-27T20:46:17.082Z,100706.77
2022-12-27T20:48:46.451Z,100711.24
2022-12-27T20:51:17.070Z,100706.67
2022-12-27T20:53:44.757Z,100708.11
2022-12-27T20:56:13.137Z,100702.05
2022-12-27T20:58:40.230Z,100695.25
2022-12-27T21:01:15.403Z,100706.86
2022-12-27T21:03:43.392Z,100712.26
2022-12-27T21:06:12.147Z,100715.66
2022-12-27T21:08:46.705Z,100716.35
2022-12-27T21:11:20.772Z,100715.34
2022-12-27T21:13:49.028Z,100713.55
2022-12-27T21:16:22.221Z,100711.39
2022-12-27T21:18:50.084Z,100706.61
2022-12-27T21:21:20.695Z,100705.88
2022-12-27T21:23:48.641Z,100706.50
2022-12-27T21:26:18.958Z,100701.75
2022-12-27T21:28:47.012Z,100705.70
2022-12-27T21:31:15.969Z,100709.13
2022-12-27T21:33:43.129Z,100712.98
2022-12-27T21:36:16.654Z,100714.67
2022-12-27T21:38:44.136Z,100717.66
2022-12-27T21:41:14.400Z,100718.36
2022-12-27T21:43:42.789Z,100714.42
2022-12-27T21:46:14.782Z,100715.44
2022-12-27T21:48:42.568Z,100717.13
2022-12-27T21:51:13.546Z,100718.05
2022-12-27T21:53:40.968Z,100718.09
2022-12-27T21:56:08.588Z,100717.50
2022-12-27T21:58:38.102Z,100717.28
2022-12-27T22:01:27.139Z,100714.75
2022-12-27T22:03:55.936Z,100710.96
2022-12-27T22:06:27.976Z,100709.23
2022-12-27T22:08:58.937Z,100714.56
2022-12-27T22:11:27.836Z,100714.79
2022-12-27T22:13:55.270Z,100714.23
2022-12-27T22:16:25.477Z,100713.95
2022-12-27T22:18:53.507Z,100711.92
2022-12-27T22:21:23.784Z,100715.89
2022-12-27T22:23:53.308Z,100719.75
2022-12-27T22:26:23.637Z,100723.85
2022-12-27T22:28:51.126Z,100718.38
2022-12-27T22:31:26.298Z,100720.14
2022-12-27T22:33:53.619Z,100723.11
2022-12-27T22:36:23.540Z,100721.86
2022-12-27T22:38:51.685Z,100721.91
2022-12-27T22:41:21.357Z,100719.57
2022-12-27T22:43:51.555Z,100720.03
2022-12-27T22:46:20.084Z,100722.82
2022-12-27T22:48:54.806Z,100721.07
2022-12-27T22:51:25.240Z,100719.67
2022-12-27T22:53:52.507Z,100723.34
2022-12-27T22:56:21.556Z,100728.54
2022-12-27T22:58:49.282Z,100730.27
2022-12-27T23:01:19.546Z,100730.95
2022-12-27T23:03:47.450Z,100732.52
2022-12-27T23:06:15.165Z,100730.38
2022-12-27T23:08:43.622Z,100731.35
2022-12-27T23:11:15.111Z,100730.11
2022-12-27T23:13:42.462Z,100727.09
2022-12-27T23:16:10.104Z,100725.19
2022-12-27T23:18:39.536Z,100725.00
2022-12-27T23:21:20.295Z,100721.98
2022-12-27T23:23:51.635Z,100719.52
2022-12-27T23:26:22.147Z,100716.34
2022-12-27T23:28:50.620Z,100716.68
2022-12-27T23:31:20.273Z,100714.05
2022-12-27T23:33:48.202Z,100718.04
2022-12-27T23:36:15.733Z,100719.39
2022-12-27T23:38:43.672Z,100719.67
2022-12-27T23:41:18.037Z,100722.56
2022-12-27T23:43:54.952Z,100723.81
2022-12-27T23:46:27.566Z,100724.94
2022-12-27T23:48:56.541Z,100725.61
2022-12-27T23:51:25.286Z,100730.48
2022-12-27T23:53:52.789Z,100731.77
2022-12-27T23:56:24.309Z,100733.25
2022-12-27T23:58:53.293Z,100734.49
